Time;durP1;ratioP1;P1;durP2;ratioP2;P2;SDS_P1;SDS_P2;PMS_P1;PMS_P2;Temp;Humidity;BMP_temperature;BMP_pressure;BME280_temperature;BME280_humidity;BME280_pressure;Samples;Min_cycle;Max_cycle;Signal;HPM_P1;HPM_P2
2024/04/15 00:01:26;;;;;;;11.73;1.90;;;;;;;7.07;100.00;101581.06;5563054;25;20068;-75
2024/04/15 00:03:52;;;;;;;13.98;2.20;;;;;;;7.21;100.00;101572.25;5563274;25;20008;-75
2024/04/15 00:06:17;;;;;;;21.95;2.63;;;;;;;7.32;100.00;101567.09;5530036;25;20073;-75
2024/04/15 00:08:42;;;;;;;9.35;1.95;;;;;;;7.44;100.00;101567.28;5562845;25;20440;-75
2024/04/15 00:11:08;;;;;;;10.57;2.00;;;;;;;7.52;100.00;101554.34;5562496;25;19993;-75
2024/04/15 00:13:33;;;;;;;15.15;2.42;;;;;;;7.56;100.00;101548.75;5562571;25;20007;-75
2024/04/15 00:15:58;;;;;;;10.25;1.83;;;;;;;7.63;100.00;101545.69;5528450;25;20028;-76
2024/04/15 00:18:24;;;;;;;16.30;1.92;;;;;;;7.65;100.00;101538.50;5561737;25;20068;-75
2024/04/15 00:20:59;;;;;;;12.20;2.05;;;;;;;7.70;100.00;101534.59;5562642;25;20010;-75
2024/04/15 00:23:26;;;;;;;10.10;2.10;;;;;;;7.73;100.00;101526.44;5564338;25;20424;-75
2024/04/15 00:25:56;;;;;;;12.15;1.80;;;;;;;7.78;100.00;101523.47;5565397;25;20005;-75
2024/04/15 00:28:22;;;;;;;14.45;2.17;;;;;;;7.82;100.00;101511.69;5565952;25;19996;-75
2024/04/15 00:30:48;;;;;;;10.60;2.47;;;;;;;7.84;100.00;101508.97;5566070;25;20037;-75
2024/04/15 00:33:14;;;;;;;11.63;2.10;;;;;;;7.87;100.00;101498.16;5566607;25;20005;-75
2024/04/15 00:35:42;;;;;;;14.10;2.38;;;;;;;7.84;100.00;101495.72;5565624;25;20064;-76
2024/04/15 00:38:08;;;;;;;9.82;2.60;;;;;;;7.86;100.00;101493.81;5532737;25;20317;-75
2024/04/15 00:40:33;;;;;;;11.05;2.47;;;;;;;7.85;100.00;101494.75;5533183;25;20003;-75
2024/04/15 00:42:58;;;;;;;15.10;2.85;;;;;;;7.90;100.00;101487.34;5502055;25;20008;-75
2024/04/15 00:45:32;;;;;;;13.40;2.50;;;;;;;7.92;100.00;101491.56;5565722;25;20000;-75
2024/04/15 00:48:18;;;;;;;11.65;2.40;;;;;;;7.98;100.00;101481.53;5565069;25;20478;-75
2024/04/15 00:50:46;;;;;;;13.75;2.90;;;;;;;8.01;100.00;101478.66;5566133;25;20072;-75
2024/04/15 00:53:14;;;;;;;8.52;2.20;;;;;;;8.03;100.00;101482.91;5566367;25;19993;-75
2024/04/15 00:55:43;;;;;;;15.07;2.15;;;;;;;8.06;100.00;101476.53;5565162;25;20377;-75
2024/04/15 00:58:09;;;;;;;12.75;2.75;;;;;;;8.10;100.00;101467.41;5566106;25;20416;-74
2024/04/15 01:00:35;;;;;;;19.02;2.45;;;;;;;8.12;100.00;101470.78;5566211;25;20041;-75
2024/04/15 01:03:00;;;;;;;16.38;2.63;;;;;;;8.18;100.00;101464.22;5564365;25;19997;-76
2024/04/15 01:05:26;;;;;;;16.77;2.53;;;;;;;8.19;100.00;101457.97;5565788;25;20433;-75
2024/04/15 01:07:51;;;;;;;17.13;3.72;;;;;;;8.21;100.00;101453.38;5532346;25;19997;-75
2024/04/15 01:10:17;;;;;;;10.48;2.45;;;;;;;8.21;100.00;101448.97;5565410;25;20320;-75
2024/04/15 01:12:42;;;;;;;19.10;2.65;;;;;;;8.20;100.00;101452.56;5564957;25;20001;-75
2024/04/15 01:15:08;;;;;;;13.00;2.50;;;;;;;8.20;100.00;101446.41;5565815;25;20414;-74
2024/04/15 01:17:33;;;;;;;18.05;2.67;;;;;;;8.15;100.00;101443.22;5565683;25;20079;-75
2024/04/15 01:19:59;;;;;;;25.13;2.78;;;;;;;8.12;100.00;101441.63;5532341;25;19989;-75
2024/04/15 01:22:32;;;;;;;12.88;2.63;;;;;;;8.10;100.00;101436.44;5565708;25;20421;-75
2024/04/15 01:24:57;;;;;;;21.67;3.15;;;;;;;8.15;100.00;101437.91;5565596;25;19997;-75
2024/04/15 01:27:23;;;;;;;13.50;2.40;;;;;;;8.18;100.00;101438.56;5532439;25;20427;-75
2024/04/15 01:29:48;;;;;;;24.67;2.88;;;;;;;8.22;100.00;101429.41;5564713;25;19997;-74
2024/04/15 01:32:13;;;;;;;17.48;3.13;;;;;;;8.29;100.00;101424.53;5563944;25;20000;-74
2024/04/15 01:34:39;;;;;;;16.13;2.47;;;;;;;8.27;100.00;101422.00;5564512;25;19992;-75
2024/04/15 01:37:04;;;;;;;15.15;2.67;;;;;;;8.25;100.00;101428.38;5565278;25;19993;-74
2024/04/15 01:39:29;;;;;;;19.35;3.08;;;;;;;8.20;100.00;101418.09;5565702;25;20095;-75
2024/04/15 01:41:55;;;;;;;25.63;3.83;;;;;;;8.15;100.00;101414.06;5564960;25;19993;-75
2024/04/15 01:44:20;;;;;;;17.08;2.83;;;;;;;8.12;100.00;101405.38;5532370;25;20004;-75
2024/04/15 01:46:45;;;;;;;17.17;3.42;;;;;;;8.11;100.00;101403.69;5566208;25;20004;-76
2024/04/15 01:49:11;;;;;;;12.85;2.58;;;;;;;8.10;100.00;101407.28;5563806;25;20008;-75
2024/04/15 01:51:36;;;;;;;9.95;2.33;;;;;;;8.11;100.00;101406.34;5564928;25;20370;-74
2024/04/15 01:54:01;;;;;;;14.40;2.53;;;;;;;8.15;100.00;101399.03;5565507;25;20420;-75
2024/04/15 01:56:27;;;;;;;16.88;2.75;;;;;;;8.20;100.00;101394.22;5563332;25;20064;-74
2024/04/15 01:58:52;;;;;;;18.50;3.08;;;;;;;8.22;100.00;101394.94;5564722;25;19996;-75
2024/04/15 02:01:18;;;;;;;17.38;2.80;;;;;;;8.21;100.00;101389.75;5565403;25;20000;-74
2024/04/15 02:03:43;;;;;;;17.55;2.88;;;;;;;8.17;100.00;101393.63;5564164;25;20302;-75
2024/04/15 02:06:09;;;;;;;28.13;3.75;;;;;;;8.08;100.00;101384.50;5563995;25;20008;-74
2024/04/15 02:08:34;;;;;;;10.13;2.22;;;;;;;8.01;100.00;101384.09;5564659;25;20336;-76
2024/04/15 02:11:00;;;;;;;10.95;2.15;;;;;;;8.02;100.00;101375.19;5564849;25;20033;-76
2024/04/15 02:13:25;;;;;;;7.93;1.95;;;;;;;8.01;100.00;101370.84;5564828;25;20064;-76
2024/04/15 02:15:51;;;;;;;10.77;1.83;;;;;;;8.09;100.00;101372.94;5564555;25;20015;-75
2024/04/15 02:18:16;;;;;;;12.75;2.22;;;;;;;8.20;100.00;101380.13;5531584;25;19993;-77
2024/04/15 02:20:42;;;;;;;3.92;1.50;;;;;;;8.29;100.00;101372.34;5564352;25;19997;-75
2024/04/15 02:23:07;;;;;;;8.90;1.48;;;;;;;8.39;100.00;101369.91;5564271;25;19993;-75
2024/04/15 02:25:32;;;;;;;11.38;1.60;;;;;;;8.45;100.00;101364.16;5564416;25;19992;-75
2024/04/15 02:27:58;;;;;;;9.65;1.55;;;;;;;8.54;100.00;101356.47;5563957;25;20111;-75
2024/04/15 02:30:23;;;;;;;6.15;1.75;;;;;;;8.58;100.00;101360.59;5564201;25;19996;-74
2024/04/15 02:32:48;;;;;;;3.78;1.30;;;;;;;8.60;100.00;101356.06;5564076;25;20451;-75
2024/04/15 02:35:14;;;;;;;3.97;1.30;;;;;;;8.58;100.00;101350.00;5563702;25;19993;-74
2024/04/15 02:37:39;;;;;;;15.77;2.17;;;;;;;8.55;100.00;101340.44;5531945;25;20405;-75
2024/04/15 02:40:05;;;;;;;10.52;1.80;;;;;;;8.56;100.00;101349.28;5564429;25;20305;-75
2024/04/15 02:42:30;;;;;;;8.68;1.70;;;;;;;8.60;100.00;101343.63;5563806;25;20001;-76
2024/04/15 02:44:55;;;;;;;12.18;2.25;;;;;;;8.61;100.00;101329.41;5531065;25;20007;-75
2024/04/15 02:47:21;;;;;;;7.40;1.20;;;;;;;8.53;100.00;101336.25;5562064;25;20004;-75
2024/04/15 02:49:46;;;;;;;7.13;1.33;;;;;;;8.47;100.00;101324.28;5564776;25;19993;-75
2024/04/15 02:52:11;;;;;;;4.40;1.33;;;;;;;8.42;100.00;101331.69;5563888;25;20004;-75
2024/04/15 02:54:36;;;;;;;7.05;1.65;;;;;;;8.36;100.00;101318.88;5564025;25;19992;-75
2024/04/15 02:57:02;;;;;;;9.60;1.60;;;;;;;8.32;100.00;101320.91;5561822;25;19993;-75
2024/04/15 02:59:27;;;;;;;13.25;1.83;;;;;;;8.28;100.00;101317.66;5560526;25;20000;-75
2024/04/15 03:01:53;;;;;;;6.55;1.45;;;;;;;8.24;100.00;101317.97;5531185;25;20027;-75
2024/04/15 03:04:18;;;;;;;6.75;1.23;;;;;;;8.21;100.00;101307.59;5564004;25;19993;-76
2024/04/15 03:06:43;;;;;;;8.77;1.73;;;;;;;8.21;100.00;101299.63;5531709;25;20042;-75
2024/04/15 03:09:09;;;;;;;5.70;1.80;;;;;;;8.19;100.00;101309.50;5563259;25;19993;-75
2024/04/15 03:11:34;;;;;;;5.90;1.60;;;;;;;8.16;100.00;101299.97;5564684;25;19997;-75
2024/04/15 03:14:00;;;;;;;8.32;2.00;;;;;;;8.15;100.00;101300.94;5534041;25;20302;-77
2024/04/15 03:16:25;;;;;;;7.90;1.58;;;;;;;8.14;100.00;101295.75;5567423;25;19997;-76
2024/04/15 03:18:51;;;;;;;8.85;1.58;;;;;;;8.12;100.00;101280.81;5566134;25;20421;-75
2024/04/15 03:21:16;;;;;;;9.88;1.63;;;;;;;8.07;100.00;101287.41;5564689;25;20007;-76
2024/04/15 03:23:41;;;;;;;8.98;1.38;;;;;;;8.02;100.00;101276.31;5562671;25;20369;-73
2024/04/15 03:26:07;;;;;;;9.60;1.80;;;;;;;7.98;100.00;101272.19;5563867;25;19997;-76
2024/04/15 03:28:32;;;;;;;6.57;1.42;;;;;;;7.94;100.00;101260.94;5562885;25;19996;-76
2024/04/15 03:30:58;;;;;;;6.10;1.83;;;;;;;7.92;100.00;101253.09;5564061;25;19993;-76
2024/04/15 03:33:23;;;;;;;7.90;1.50;;;;;;;7.92;100.00;101246.97;5531085;25;20041;-76
2024/04/15 03:35:49;;;;;;;7.15;1.77;;;;;;;7.93;100.00;101252.16;5562615;25;20321;-76
2024/04/15 03:38:14;;;;;;;9.35;2.22;;;;;;;7.97;100.00;101247.47;5563382;25;20072;-76
2024/04/15 03:40:40;;;;;;;8.40;1.42;;;;;;;7.97;100.00;101246.63;5564052;25;19997;-76
2024/04/15 03:43:05;;;;;;;7.70;1.67;;;;;;;8.00;100.00;101227.84;5563735;25;20064;-76
2024/04/15 03:45:30;;;;;;;10.43;1.48;;;;;;;8.01;100.00;101240.16;5563594;25;20004;-76
2024/04/15 03:47:55;;;;;;;8.73;1.38;;;;;;;7.98;100.00;101225.31;5562818;25;20000;-79
2024/04/15 03:50:23;;;;;;;6.05;1.50;;;;;;;8.02;100.00;101218.84;5563541;25;19997;-76
2024/04/15 03:52:49;;;;;;;13.73;1.45;;;;;;;8.04;100.00;101221.38;5563311;25;20004;-76
2024/04/15 03:55:14;;;;;;;7.95;1.67;;;;;;;7.98;100.00;101214.72;5530908;25;19992;-76
2024/04/15 03:57:40;;;;;;;10.02;1.55;;;;;;;7.94;100.00;101210.59;5563111;25;20321;-76
2024/04/15 04:00:06;;;;;;;10.05;1.85;;;;;;;7.88;100.00;101196.00;5530937;25;20088;-77
2024/04/15 04:02:31;;;;;;;11.50;2.38;;;;;;;7.80;100.00;101189.59;5562815;25;19993;-76
2024/04/15 04:04:56;;;;;;;12.90;2.17;;;;;;;7.70;100.00;101198.22;5530323;25;19997;-77
2024/04/15 04:07:22;;;;;;;8.27;1.50;;;;;;;7.70;100.00;101189.41;5562983;25;20042;-76
2024/04/15 04:09:47;;;;;;;8.30;1.75;;;;;;;7.63;100.00;101194.31;5562940;25;19997;-74
2024/04/15 04:12:13;;;;;;;8.25;1.63;;;;;;;7.59;100.00;101182.22;5562328;25;20147;-74
2024/04/15 04:14:38;;;;;;;5.63;1.67;;;;;;;7.55;100.00;101184.28;5563394;25;20421;-76
2024/04/15 04:17:04;;;;;;;11.82;1.90;;;;;;;7.49;100.00;101175.91;5563066;25;20037;-76
2024/04/15 04:19:30;;;;;;;12.88;2.05;;;;;;;7.39;100.00;101176.56;5530394;25;20321;-75
2024/04/15 04:21:55;;;;;;;9.98;2.60;;;;;;;7.31;100.00;101178.06;5561994;25;20005;-75
2024/04/15 04:24:21;;;;;;;7.47;1.73;;;;;;;7.21;100.00;101181.38;5562940;25;20457;-77
2024/04/15 04:26:46;;;;;;;10.40;2.05;;;;;;;7.17;100.00;101181.72;5561389;25;20004;-75
2024/04/15 04:29:12;;;;;;;8.43;1.90;;;;;;;7.13;100.00;101182.88;5529852;25;19993;-75
2024/04/15 04:31:37;;;;;;;7.85;1.73;;;;;;;7.07;100.00;101170.91;5529297;25;20011;-76
2024/04/15 04:34:03;;;;;;;7.53;1.80;;;;;;;7.04;100.00;101158.75;5562504;25;19993;-76
2024/04/15 04:36:28;;;;;;;11.07;1.70;;;;;;;7.04;100.00;101153.44;5562332;25;20424;-75
2024/04/15 04:38:54;;;;;;;4.93;1.60;;;;;;;7.02;100.00;101155.38;5562827;25;20008;-76
2024/04/15 04:41:21;;;;;;;10.13;1.80;;;;;;;7.03;100.00;101145.63;5562122;25;20149;-75
2024/04/15 04:43:46;;;;;;;19.58;2.15;;;;;;;7.05;100.00;101143.75;5561382;25;20007;-75
2024/04/15 04:46:12;;;;;;;14.02;2.72;;;;;;;7.02;100.00;101143.97;5562190;25;19997;-76
2024/04/15 04:48:38;;;;;;;11.90;2.00;;;;;;;7.01;100.00;101142.25;5561664;25;20008;-75
2024/04/15 04:51:08;;;;;;;9.35;2.17;;;;;;;6.98;100.00;101140.66;5562240;25;20338;-76
2024/04/15 04:53:34;;;;;;;10.02;1.77;;;;;;;7.01;100.00;101131.66;5562474;25;20008;-79
2024/04/15 04:56:11;;;;;;;12.65;2.08;;;;;;;7.01;100.00;101123.72;5529194;25;19996;-76
2024/04/15 04:58:38;;;;;;;6.75;1.45;;;;;;;7.00;100.00;101116.75;5561836;25;19996;-77
2024/04/15 05:01:10;;;;;;;6.43;1.63;;;;;;;6.99;100.00;101120.38;5561908;25;20481;-77
2024/04/15 05:03:40;;;;;;;5.95;1.58;;;;;;;6.95;100.00;101113.59;5561484;25;20131;-77
2024/04/15 05:06:06;;;;;;;11.63;2.05;;;;;;;6.91;100.00;101115.59;5562134;25;19997;-75
2024/04/15 05:08:32;;;;;;;10.15;1.70;;;;;;;6.86;100.00;101113.28;5562300;25;20033;-77
2024/04/15 05:10:57;;;;;;;7.95;1.80;;;;;;;6.81;100.00;101104.81;5565583;25;20000;-75
2024/04/15 05:13:22;;;;;;;8.10;1.40;;;;;;;6.80;100.00;101095.19;5565979;25;20003;-76
2024/04/15 05:15:48;;;;;;;7.38;1.48;;;;;;;6.88;100.00;101106.09;5563322;25;19993;-76
2024/04/15 05:18:13;;;;;;;9.93;1.90;;;;;;;6.91;100.00;101110.31;5566036;25;19997;-76
2024/04/15 05:20:38;;;;;;;15.68;1.95;;;;;;;6.99;100.00;101100.03;5565602;25;20003;-76
2024/04/15 05:23:04;;;;;;;15.18;1.85;;;;;;;7.04;100.00;101102.34;5502108;25;20123;-78
2024/04/15 05:25:29;;;;;;;5.15;1.85;;;;;;;7.11;100.00;101102.78;5564769;25;19999;-76
2024/04/15 05:27:54;;;;;;;6.85;1.73;;;;;;;7.12;100.00;101088.56;5565801;25;20022;-76
2024/04/15 05:30:20;;;;;;;8.02;1.83;;;;;;;7.15;100.00;101098.91;5565763;25;20003;-77
2024/04/15 05:32:45;;;;;;;12.52;1.73;;;;;;;7.20;100.00;101088.88;5565164;25;19993;-76
2024/04/15 05:35:10;;;;;;;6.53;1.42;;;;;;;7.24;100.00;101096.47;5564174;25;20016;-76
2024/04/15 05:37:36;;;;;;;10.25;2.10;;;;;;;7.31;100.00;101088.91;5566286;25;20004;-75
2024/04/15 05:40:01;;;;;;;11.55;1.58;;;;;;;7.41;100.00;101082.00;5564626;25;20090;-77
2024/04/15 05:42:30;;;;;;;7.57;1.65;;;;;;;7.52;100.00;101078.53;5531966;25;19997;-78
2024/04/15 05:44:55;;;;;;;13.50;1.73;;;;;;;7.62;100.00;101076.06;5566007;25;20421;-76
2024/04/15 05:47:20;;;;;;;7.90;1.80;;;;;;;7.76;100.00;101081.19;5565465;25;20064;-77
2024/04/15 05:49:45;;;;;;;7.88;1.63;;;;;;;7.89;100.00;101067.84;5532035;25;20413;-77
2024/04/15 05:52:11;;;;;;;8.18;1.85;;;;;;;7.92;100.00;101059.69;5532333;25;20425;-77
2024/04/15 05:54:36;;;;;;;8.90;1.73;;;;;;;7.88;100.00;101060.91;5565666;25;20421;-77
2024/04/15 05:57:03;;;;;;;10.75;1.88;;;;;;;7.80;100.00;101065.06;5565266;25;20348;-77
2024/04/15 05:59:28;;;;;;;7.88;1.90;;;;;;;7.82;100.00;101060.50;5565074;25;19996;-75
2024/04/15 06:01:54;;;;;;;14.57;2.03;;;;;;;7.89;100.00;101046.66;5562436;25;20007;-76
2024/04/15 06:04:19;;;;;;;10.23;1.48;;;;;;;7.99;100.00;101044.16;5564600;25;20007;-77
2024/04/15 06:06:44;;;;;;;9.65;1.73;;;;;;;8.12;100.00;101046.69;5563236;25;20004;-76
2024/04/15 06:09:10;;;;;;;8.13;2.00;;;;;;;8.21;100.00;101042.50;5564896;25;20011;-75
2024/04/15 06:11:35;;;;;;;13.35;2.20;;;;;;;8.32;100.00;101031.09;5564630;25;20358;-76
2024/04/15 06:14:02;;;;;;;9.63;1.70;;;;;;;8.50;100.00;101032.31;5565039;25;20042;-76
2024/04/15 06:16:27;;;;;;;7.72;1.35;;;;;;;8.80;100.00;101031.69;5564358;25;20118;-79
2024/04/15 06:18:52;;;;;;;6.03;1.25;;;;;;;9.05;100.00;101024.41;5564024;25;20021;-76
2024/04/15 06:21:20;;;;;;;10.13;1.77;;;;;;;9.25;100.00;101008.66;5564671;25;19993;-77
2024/04/15 06:23:46;;;;;;;7.97;1.70;;;;;;;9.37;100.00;101002.31;5564583;25;19992;-78
2024/04/15 06:26:11;;;;;;;9.30;1.80;;;;;;;9.50;100.00;101003.00;5564465;25;20455;-76
2024/04/15 06:28:37;;;;;;;14.70;1.75;;;;;;;9.56;100.00;101000.81;5564024;25;20297;-76
2024/04/15 06:31:02;;;;;;;4.88;1.77;;;;;;;9.52;100.00;100992.25;5565277;25;20033;-78
2024/04/15 06:33:28;;;;;;;7.72;1.60;;;;;;;9.48;100.00;100982.84;5565291;25;19988;-78
2024/04/15 06:35:54;;;;;;;14.38;1.88;;;;;;;9.44;100.00;100986.75;5564957;25;20502;-78
2024/04/15 06:38:19;;;;;;;7.15;1.98;;;;;;;9.41;100.00;100971.91;5530782;25;20004;-76
2024/04/15 06:40:45;;;;;;;7.30;1.77;;;;;;;9.30;100.00;100979.91;5564905;25;20317;-81
2024/04/15 06:43:10;;;;;;;10.23;1.80;;;;;;;9.33;100.00;100971.69;5564852;25;19993;-80
2024/04/15 06:45:36;;;;;;;11.65;1.60;;;;;;;9.37;100.00;100943.06;5495593;25;20056;-76
2024/04/15 06:48:02;;;;;;;6.03;1.67;;;;;;;9.45;100.00;100945.91;5547753;25;20425;-76
2024/04/15 06:50:27;;;;;;;9.70;2.17;;;;;;;9.51;100.00;100938.28;5513921;25;20079;-77
2024/04/15 06:52:53;;;;;;;8.50;1.83;;;;;;;9.57;100.00;100933.41;5520815;25;20437;-79
2024/04/15 06:55:19;;;;;;;9.25;1.40;;;;;;;9.62;100.00;100929.41;5546590;25;20029;-79
2024/04/15 06:57:47;;;;;;;6.13;1.48;;;;;;;9.62;100.00;100932.06;5559665;25;20380;-77
2024/04/15 07:00:13;;;;;;;7.15;2.10;;;;;;;9.60;100.00;100917.22;5561602;25;20068;-78
2024/04/15 07:02:38;;;;;;;9.40;1.92;;;;;;;9.61;100.00;100918.91;5563731;25;20337;-78
2024/04/15 07:05:04;;;;;;;12.30;1.98;;;;;;;9.62;100.00;100910.81;5562950;25;19997;-79
2024/04/15 07:07:29;;;;;;;12.07;3.55;;;;;;;9.51;100.00;100905.56;5564111;25;19993;-77
2024/04/15 07:09:54;;;;;;;5.53;1.70;;;;;;;9.57;100.00;100901.53;5553977;25;20069;-77
2024/04/15 07:12:20;;;;;;;7.13;2.20;;;;;;;9.40;100.00;100900.31;5557152;25;20126;-78
2024/04/15 07:14:46;;;;;;;10.15;2.67;;;;;;;9.38;100.00;100895.16;5546622;25;20003;-78
2024/04/15 07:17:11;;;;;;;11.25;2.45;;;;;;;9.40;100.00;100885.22;5514257;25;20011;-79
2024/04/15 07:19:37;;;;;;;5.30;1.75;;;;;;;9.38;100.00;100881.03;5548074;25;19988;-79
2024/04/15 07:22:02;;;;;;;14.77;2.58;;;;;;;9.35;100.00;100869.69;5560944;25;19993;-77
2024/04/15 07:24:29;;;;;;;9.50;2.28;;;;;;;9.38;100.00;100860.63;5513375;25;19988;-78
2024/04/15 07:26:55;;;;;;;11.10;2.33;;;;;;;9.42;100.00;100861.19;5547334;25;20025;-76
2024/04/15 07:29:20;;;;;;;10.18;2.45;;;;;;;9.43;100.00;100854.91;5546524;25;20309;-76
2024/04/15 07:31:45;;;;;;;10.13;2.90;;;;;;;9.50;100.00;100838.31;5545646;25;19997;-79
2024/04/15 07:34:11;;;;;;;16.10;3.00;;;;;;;9.50;100.00;100827.69;5558378;25;20075;-79
2024/04/15 07:36:36;;;;;;;15.07;3.25;;;;;;;9.55;100.00;100821.16;5555024;25;19997;-82
2024/04/15 07:39:01;;;;;;;13.70;3.47;;;;;;;9.64;100.00;100820.34;5547067;25;19989;-79
2024/04/15 07:41:27;;;;;;;8.55;2.45;;;;;;;9.61;100.00;100802.03;5547012;25;20007;-81
2024/04/15 07:43:52;;;;;;;9.00;2.45;;;;;;;9.66;100.00;100816.59;5546750;25;20409;-79
2024/04/15 07:46:18;;;;;;;16.45;2.92;;;;;;;9.63;100.00;100805.38;5514458;25;20468;-77
2024/04/15 07:48:43;;;;;;;23.67;3.00;;;;;;;9.45;100.00;100797.19;5546349;25;20046;-77
2024/04/15 07:51:09;;;;;;;9.52;2.72;;;;;;;9.40;100.00;100789.63;5554164;25;19989;-79
2024/04/15 07:53:34;;;;;;;17.88;2.85;;;;;;;9.33;100.00;100789.31;5564113;25;19993;-77
2024/04/15 07:56:00;;;;;;;23.45;3.17;;;;;;;9.24;100.00;100786.59;5554679;25;20076;-82
2024/04/15 07:58:25;;;;;;;13.00;2.78;;;;;;;9.07;100.00;100775.63;5547161;25;19999;-79
2024/04/15 08:00:50;;;;;;;13.38;2.60;;;;;;;9.03;100.00;100770.69;5549263;25;19993;-77
2024/04/15 08:03:16;;;;;;;15.18;2.75;;;;;;;9.01;100.00;100752.25;5559781;25;19999;-77
2024/04/15 08:05:41;;;;;;;14.25;2.95;;;;;;;9.09;100.00;100756.91;5563540;25;19999;-76
2024/04/15 08:08:07;;;;;;;9.50;2.70;;;;;;;9.21;100.00;100739.94;5563804;25;20001;-77
2024/04/15 08:10:33;;;;;;;11.35;3.30;;;;;;;9.40;100.00;100725.88;5563494;25;20448;-77
2024/04/15 08:12:58;;;;;;;14.77;2.60;;;;;;;9.35;100.00;100734.25;5563725;25;19989;-79
2024/04/15 08:15:23;;;;;;;9.15;2.80;;;;;;;9.35;100.00;100726.28;5563868;25;20060;-79
2024/04/15 08:17:49;;;;;;;16.02;3.80;;;;;;;9.34;100.00;100726.44;5500546;25;19989;-77
2024/04/15 08:20:14;;;;;;;15.45;3.33;;;;;;;9.32;100.00;100707.16;5564207;25;19988;-75
2024/04/15 08:22:40;;;;;;;9.55;2.60;;;;;;;9.29;100.00;100712.72;5563388;25;20115;-80
2024/04/15 08:25:08;;;;;;;13.57;2.63;;;;;;;9.18;100.00;100695.06;5562744;25;20021;-77
2024/04/15 08:27:35;;;;;;;13.77;2.88;;;;;;;9.28;100.00;100684.47;5562592;25;19999;-81
2024/04/15 08:30:01;;;;;;;14.90;2.83;;;;;;;9.44;100.00;100679.50;5563758;25;20020;-80
2024/04/15 08:32:26;;;;;;;11.35;2.42;;;;;;;9.64;100.00;100675.09;5563282;25;19999;-79
2024/04/15 08:34:51;;;;;;;13.82;2.42;;;;;;;9.63;100.00;100661.91;5563540;25;19992;-81
2024/04/15 08:37:17;;;;;;;16.15;2.72;;;;;;;9.75;100.00;100658.19;5563536;25;20064;-80
2024/04/15 08:39:45;;;;;;;9.40;2.70;;;;;;;9.81;100.00;100652.31;5563120;25;20000;-80
2024/04/15 08:42:45;;;;;;;9.68;2.50;;;;;;;9.86;100.00;100639.44;5563342;25;20005;-80
2024/04/15 08:45:19;;;;;;;11.93;2.05;;;;;;;9.80;100.00;100641.81;5565532;25;20042;-80
2024/04/15 08:47:50;;;;;;;11.60;2.20;;;;;;;9.74;100.00;100634.41;5534096;25;19992;-79
2024/04/15 08:50:16;;;;;;;10.63;1.88;;;;;;;9.69;100.00;100624.19;5567070;25;20036;-78
2024/04/15 08:52:44;;;;;;;14.30;2.47;;;;;;;9.73;100.00;100625.59;5566477;25;19996;-75
2024/04/15 08:55:10;;;;;;;6.60;1.77;;;;;;;9.79;100.00;100622.41;5566371;25;20420;-75
2024/04/15 08:57:37;;;;;;;10.57;2.03;;;;;;;9.87;100.00;100611.06;5566530;25;19993;-77
2024/04/15 09:00:04;;;;;;;11.95;2.20;;;;;;;9.93;100.00;100597.22;5566459;25;20453;-76
2024/04/15 09:02:32;;;;;;;7.72;1.80;;;;;;;9.95;100.00;100587.25;5566511;25;20429;-77
2024/04/15 09:04:58;;;;;;;9.45;2.28;;;;;;;9.85;100.00;100581.97;5533578;25;19989;-78
2024/04/15 09:07:23;;;;;;;12.43;2.30;;;;;;;9.73;100.00;100577.75;5566762;25;20298;-79
2024/04/15 09:09:49;;;;;;;8.18;1.92;;;;;;;9.64;100.00;100566.19;5566363;25;20011;-77
2024/04/15 09:12:14;;;;;;;10.98;1.90;;;;;;;9.67;100.00;100560.59;5566087;25;20405;-75
2024/04/15 09:14:40;;;;;;;14.45;2.08;;;;;;;9.59;100.00;100564.91;5533700;25;20394;-78
2024/04/15 09:17:05;;;;;;;4.43;1.67;;;;;;;9.36;100.00;100559.88;5566565;25;19993;-76
2024/04/15 09:19:32;;;;;;;13.13;2.05;;;;;;;9.26;100.00;100562.50;5566306;25;20012;-79
2024/04/15 09:22:01;;;;;;;10.57;1.77;;;;;;;8.83;100.00;100535.28;5566361;25;19993;-79
2024/04/15 09:24:27;;;;;;;8.98;1.67;;;;;;;8.55;100.00;100518.31;5566399;25;20301;-76
2024/04/15 09:26:52;;;;;;;18.52;1.80;;;;;;;8.38;100.00;100516.25;5565971;25;20006;-77
2024/04/15 09:29:18;;;;;;;11.57;1.88;;;;;;;8.22;100.00;100522.03;5565235;25;20008;-78
2024/04/15 09:31:43;;;;;;;10.20;1.77;;;;;;;8.13;100.00;100521.00;5532475;25;20441;-78
2024/04/15 09:34:09;;;;;;;12.80;2.13;;;;;;;8.08;100.00;100502.03;5565314;25;19996;-81
2024/04/15 09:36:40;;;;;;;11.13;2.22;;;;;;;8.06;100.00;100510.09;5564528;25;19999;-77
2024/04/15 09:39:07;;;;;;;10.70;2.10;;;;;;;8.03;100.00;100491.81;5532733;25;20145;-81
2024/04/15 09:41:34;;;;;;;12.38;2.05;;;;;;;8.14;100.00;100490.06;5565277;25;20401;-81
2024/04/15 09:44:00;;;;;;;9.18;1.85;;;;;;;8.24;100.00;100478.53;5565476;25;19993;-80
2024/04/15 09:46:31;;;;;;;17.27;1.90;;;;;;;8.31;100.00;100465.56;5565784;25;20037;-79
2024/04/15 09:48:57;;;;;;;12.32;2.58;;;;;;;8.20;100.00;100465.69;5532835;25;20328;-84
2024/04/15 09:51:23;;;;;;;14.05;2.40;;;;;;;8.00;100.00;100448.84;5565698;25;19993;-78
2024/04/15 09:53:52;;;;;;;11.38;3.22;;;;;;;7.80;100.00;100418.78;5565743;25;20433;-82
2024/04/15 09:56:26;;;;;;;10.25;2.30;;;;;;;7.82;100.00;100430.06;5564988;25;20064;-80
2024/04/15 09:58:55;;;;;;;11.20;2.78;;;;;;;7.92;100.00;100421.19;5565832;25;20001;-80
2024/04/15 10:01:25;;;;;;;10.88;2.92;;;;;;;8.03;100.00;100411.47;5565305;25;19993;-78
2024/04/15 10:03:52;;;;;;;15.30;2.70;;;;;;;8.37;100.00;100408.53;5565461;25;20007;-78
2024/04/15 10:06:32;;;;;;;9.90;2.35;;;;;;;8.87;100.00;100405.00;5531642;25;20369;-75
2024/04/15 10:09:01;;;;;;;12.40;2.35;;;;;;;9.10;100.00;100379.06;5565399;25;20003;-77
2024/04/15 10:11:28;;;;;;;9.02;2.13;;;;;;;9.08;100.00;100378.38;5565100;25;19997;-78
2024/04/15 10:13:54;;;;;;;10.00;2.08;;;;;;;9.01;100.00;100367.47;5532459;25;20397;-76
2024/04/15 10:16:19;;;;;;;7.38;2.45;;;;;;;8.87;100.00;100378.47;5564961;25;19992;-79
2024/04/15 10:18:51;;;;;;;8.75;2.00;;;;;;;8.87;100.00;100362.56;5564883;25;20023;-77
2024/04/15 10:21:21;;;;;;;16.05;2.15;;;;;;;8.94;100.00;100347.75;5564957;25;20028;-76
2024/04/15 10:23:47;;;;;;;10.93;1.95;;;;;;;8.99;100.00;100350.84;5532596;25;20300;-82
2024/04/15 10:26:14;;;;;;;12.52;1.88;;;;;;;9.09;100.00;100333.09;5565151;25;20033;-81
2024/04/15 10:28:39;;;;;;;11.38;1.70;;;;;;;9.31;100.00;100316.00;5531910;25;20135;-79
2024/04/15 10:31:05;;;;;;;5.05;1.60;;;;;;;9.46;100.00;100313.72;5564717;25;20004;-81
2024/04/15 10:33:30;;;;;;;7.97;1.33;;;;;;;9.54;100.00;100307.72;5564985;25;20423;-81
2024/04/15 10:35:55;;;;;;;9.05;1.50;;;;;;;9.65;100.00;100322.63;5565010;25;19992;-87
2024/04/15 10:38:26;;;;;;;9.20;1.60;;;;;;;9.93;100.00;100304.88;5564498;25;20429;-84
2024/04/15 10:40:52;;;;;;;9.48;1.52;;;;;;;10.11;100.00;100274.84;5564942;25;20004;-81
2024/04/15 10:43:21;;;;;;;5.78;1.73;;;;;;;10.33;100.00;100279.75;5531790;25;20004;-81
2024/04/15 10:45:47;;;;;;;7.00;1.35;;;;;;;10.24;100.00;100257.53;5564711;25;20004;-85
2024/04/15 10:48:13;;;;;;;3.63;1.30;;;;;;;10.13;100.00;100259.56;5564356;25;19992;-82
2024/04/15 10:50:40;;;;;;;7.43;1.77;;;;;;;9.97;100.00;100241.63;5564689;25;20068;-82
2024/04/15 10:53:05;;;;;;;5.43;1.50;;;;;;;9.92;100.00;100233.28;5564684;25;20000;-83
2024/04/15 10:55:31;;;;;;;4.03;1.30;;;;;;;9.88;100.00;100217.63;5564273;25;20003;-81
2024/04/15 10:57:56;;;;;;;13.02;2.13;;;;;;;10.16;100.00;100214.91;5564843;25;19996;-80
2024/04/15 11:00:23;;;;;;;11.30;1.67;;;;;;;10.22;100.00;100214.28;5564407;25;20003;-80
2024/04/15 11:02:50;;;;;;;6.93;1.70;;;;;;;10.16;100.00;100206.94;5531437;25;19992;-78
2024/04/15 11:05:17;;;;;;;10.73;2.22;;;;;;;9.99;100.00;100181.19;5531051;25;19993;-77
2024/04/15 11:07:43;;;;;;;12.88;2.33;;;;;;;9.88;100.00;100174.25;5563272;25;19993;-77
2024/04/15 11:10:11;;;;;;;12.80;2.72;;;;;;;9.75;100.00;100171.13;5564638;25;20032;-82
2024/04/15 11:12:37;;;;;;;8.18;2.13;;;;;;;9.75;100.00;100147.22;5533557;25;20419;-82
2024/04/15 11:15:04;;;;;;;6.68;1.95;;;;;;;9.81;100.00;100144.81;5564231;25;19993;-79